Swengel, Pennsylvania
Current Conditions -  °F | °C
As of 2:53 PM on Thursday 23 Oct 2014 (Local Time) from KSEG Reporting Station
Overcast Overcast  
Wind Chill: 59°   Ceiling: 3600
Heat Index: 59°   Visibility: 10mi
Dew Point: 44°   Wind: 16mph
Humidity: 58%   Direction: 340°NNW
Pressure: 29.87"   Gusts: 29mph
Location:  40.89°N, 77.13°W
Report Text: KSEG 231853Z AUTO 34014G25KT 10SM OVC036 15/07 A2987 RMK AO2 PK WND 34026/1809 SLP115 T01500067
Loading
Personal Weather Stations






























Interactive Weather Map
Tropical Storm Tracking
New forecast layout! Learn more

10-Day Weather Forecast

Advertisements
Track Severe Weather on mobile